メインページ
METAR-TAF:

METAR-TAF

空港 :

トリポリ, リビア

Mitiga International Airport

緯度: 32-54N, 経度: 13-17E, 海抜: 11m

現時点の気象観測

当レポートは1時間50分前の12:50(UTC)に作成
北東の風 10kt
気温 30°C
湿度 55%
気圧 1012 hPa
視程: 8000m

METAR: HLLM 261250Z 04010KT 8000 NSC 30/20 Q1012

時間: 16:40 (14:40 UTC)


TAF: 見つかりません

4,000以上の空港の気象観測と天気予報(METAR報とTAF報)

利用可能な観測所は地図上に黄色い丸と赤い丸で示す。

丸の上にカーソルを重ねると観測所名を参照できる。

次にクリックすると気象観測と天気予報を参照できる。

マップの切り替え:黒色「×」印の緑ボタンをクリックして拡大、「-」印の緑ボタンをクリックして縮小、緑色の三角印をクリックして隣りの地図に切り替え


METAR-TAF: